sensor_id;sensor_type;location;lat;lon;timestamp;pressure;altitude;pressure_sealevel;temperature;humidity
53514;BME280;39768;54.148;12.174;2023-03-01T00:01:00;103043.31;;;1.89;100.00
53514;BME280;39768;54.148;12.174;2023-03-01T00:05:03;103050.91;;;1.84;100.00
53514;BME280;39768;54.148;12.174;2023-03-01T00:09:05;103048.66;;;1.90;100.00
53514;BME280;39768;54.148;12.174;2023-03-01T00:13:07;103038.78;;;1.86;100.00
53514;BME280;39768;54.148;12.174;2023-03-01T00:17:08;103040.41;;;1.99;100.00
53514;BME280;39768;54.148;12.174;2023-03-01T00:21:10;103035.16;;;1.99;100.00
53514;BME280;39768;54.148;12.174;2023-03-01T00:25:12;103028.50;;;1.89;100.00
53514;BME280;39768;54.148;12.174;2023-03-01T00:29:13;103038.25;;;1.92;100.00
53514;BME280;39768;54.148;12.174;2023-03-01T00:33:15;103031.38;;;1.94;100.00
53514;BME280;39768;54.148;12.174;2023-03-01T00:37:16;103038.44;;;1.65;100.00
53514;BME280;39768;54.148;12.174;2023-03-01T00:41:20;103039.72;;;1.72;100.00
53514;BME280;39768;54.148;12.174;2023-03-01T00:45:21;103041.78;;;1.63;100.00
53514;BME280;39768;54.148;12.174;2023-03-01T00:49:23;103031.94;;;1.73;100.00
53514;BME280;39768;54.148;12.174;2023-03-01T00:53:30;103038.16;;;1.90;100.00
53514;BME280;39768;54.148;12.174;2023-03-01T00:57:31;103026.97;;;1.93;100.00
53514;BME280;39768;54.148;12.174;2023-03-01T01:01:33;103027.72;;;1.75;100.00
53514;BME280;39768;54.148;12.174;2023-03-01T01:05:35;103022.78;;;1.96;100.00
53514;BME280;39768;54.148;12.174;2023-03-01T01:09:36;103010.88;;;2.01;100.00
53514;BME280;39768;54.148;12.174;2023-03-01T01:13:39;103002.63;;;2.10;100.00
53514;BME280;39768;54.148;12.174;2023-03-01T01:17:41;102997.13;;;2.05;100.00
53514;BME280;39768;54.148;12.174;2023-03-01T01:21:42;102989.53;;;1.95;100.00
53514;BME280;39768;54.148;12.174;2023-03-01T01:25:44;102981.66;;;2.10;100.00
53514;BME280;39768;54.148;12.174;2023-03-01T01:29:46;102972.25;;;2.13;100.00
53514;BME280;39768;54.148;12.174;2023-03-01T01:33:47;102972.69;;;1.90;100.00
53514;BME280;39768;54.148;12.174;2023-03-01T01:37:48;102963.81;;;2.03;100.00
53514;BME280;39768;54.148;12.174;2023-03-01T01:41:50;102960.31;;;1.88;100.00
53514;BME280;39768;54.148;12.174;2023-03-01T01:45:57;102959.72;;;1.62;100.00
53514;BME280;39768;54.148;12.174;2023-03-01T01:50:01;102963.28;;;1.79;100.00
53514;BME280;39768;54.148;12.174;2023-03-01T01:54:13;102953.72;;;1.80;100.00
53514;BME280;39768;54.148;12.174;2023-03-01T01:58:18;102964.84;;;1.90;100.00
53514;BME280;39768;54.148;12.174;2023-03-01T02:02:20;102956.91;;;1.74;100.00
53514;BME280;39768;54.148;12.174;2023-03-01T02:06:32;102952.09;;;1.82;100.00
53514;BME280;39768;54.148;12.174;2023-03-01T02:10:35;102943.59;;;1.86;100.00
53514;BME280;39768;54.148;12.174;2023-03-01T02:14:37;102947.00;;;1.99;100.00
53514;BME280;39768;54.148;12.174;2023-03-01T02:18:40;102952.78;;;1.94;100.00
53514;BME280;39768;54.148;12.174;2023-03-01T02:22:44;102943.22;;;1.94;100.00
53514;BME280;39768;54.148;12.174;2023-03-01T02:26:54;102934.44;;;1.94;100.00
53514;BME280;39768;54.148;12.174;2023-03-01T02:30:56;102937.56;;;2.18;99.87
53514;BME280;39768;54.148;12.174;2023-03-01T02:35:17;102932.22;;;1.85;100.00
53514;BME280;39768;54.148;12.174;2023-03-01T02:39:30;102928.31;;;1.93;99.24
53514;BME280;39768;54.148;12.174;2023-03-01T02:43:34;102934.44;;;1.94;100.00
53514;BME280;39768;54.148;12.174;2023-03-01T02:47:38;102929.75;;;1.57;100.00
53514;BME280;39768;54.148;12.174;2023-03-01T02:51:48;102924.00;;;1.48;100.00
53514;BME280;39768;54.148;12.174;2023-03-01T02:55:54;102915.25;;;1.33;100.00
53514;BME280;39768;54.148;12.174;2023-03-01T02:59:57;102914.78;;;1.40;100.00
53514;BME280;39768;54.148;12.174;2023-03-01T03:04:00;102917.59;;;1.43;100.00
53514;BME280;39768;54.148;12.174;2023-03-01T03:08:03;102913.41;;;1.61;100.00
53514;BME280;39768;54.148;12.174;2023-03-01T03:12:09;102913.69;;;1.51;100.00
53514;BME280;39768;54.148;12.174;2023-03-01T03:16:11;102912.25;;;1.56;100.00
53514;BME280;39768;54.148;12.174;2023-03-01T03:20:14;102921.28;;;1.92;100.00
53514;BME280;39768;54.148;12.174;2023-03-01T03:24:20;102918.22;;;1.85;99.59
53514;BME280;39768;54.148;12.174;2023-03-01T03:28:22;102913.38;;;1.76;99.05
53514;BME280;39768;54.148;12.174;2023-03-01T03:32:23;102910.38;;;1.85;98.92
53514;BME280;39768;54.148;12.174;2023-03-01T03:36:25;102903.91;;;1.78;99.63
53514;BME280;39768;54.148;12.174;2023-03-01T03:44:34;102896.06;;;1.78;99.89
53514;BME280;39768;54.148;12.174;2023-03-01T03:48:40;102891.06;;;1.83;99.52
53514;BME280;39768;54.148;12.174;2023-03-01T03:52:42;102901.34;;;1.80;97.22
53514;BME280;39768;54.148;12.174;2023-03-01T03:56:44;102905.38;;;1.58;97.28
53514;BME280;39768;54.148;12.174;2023-03-01T04:00:47;102908.66;;;1.85;97.67
53514;BME280;39768;54.148;12.174;2023-03-01T04:04:49;102902.34;;;1.82;97.06
53514;BME280;39768;54.148;12.174;2023-03-01T04:08:53;102913.69;;;1.51;100.00
53514;BME280;39768;54.148;12.174;2023-03-01T04:12:59;102905.88;;;1.82;99.85
53514;BME280;39768;54.148;12.174;2023-03-01T04:17:01;102904.41;;;1.87;98.47
53514;BME280;39768;54.148;12.174;2023-03-01T04:21:02;102906.44;;;1.76;98.80
53514;BME280;39768;54.148;12.174;2023-03-01T04:25:05;102894.16;;;1.75;97.42
53514;BME280;39768;54.148;12.174;2023-03-01T04:29:07;102896.50;;;1.71;96.71
53514;BME280;39768;54.148;12.174;2023-03-01T04:33:09;102886.75;;;1.68;97.92
53514;BME280;39768;54.148;12.174;2023-03-01T04:37:11;102884.06;;;1.52;98.87
53514;BME280;39768;54.148;12.174;2023-03-01T04:41:14;102885.31;;;1.73;99.02
53514;BME280;39768;54.148;12.174;2023-03-01T04:45:16;102880.25;;;1.76;97.86
53514;BME280;39768;54.148;12.174;2023-03-01T04:49:17;102867.16;;;1.76;97.39
53514;BME280;39768;54.148;12.174;2023-03-01T04:53:19;102874.47;;;1.67;95.95
53514;BME280;39768;54.148;12.174;2023-03-01T04:57:20;102868.22;;;0.76;100.00
53514;BME280;39768;54.148;12.174;2023-03-01T05:01:22;102870.03;;;1.21;100.00
53514;BME280;39768;54.148;12.174;2023-03-01T05:05:30;102872.94;;;1.11;100.00
53514;BME280;39768;54.148;12.174;2023-03-01T05:09:32;102876.16;;;1.36;100.00
53514;BME280;39768;54.148;12.174;2023-03-01T05:13:35;102875.44;;;1.38;100.00
53514;BME280;39768;54.148;12.174;2023-03-01T05:17:37;102868.75;;;1.58;99.70
53514;BME280;39768;54.148;12.174;2023-03-01T05:21:38;102874.69;;;1.56;98.85
53514;BME280;39768;54.148;12.174;2023-03-01T05:26:01;102868.75;;;1.44;99.22
53514;BME280;39768;54.148;12.174;2023-03-01T05:30:04;102866.41;;;1.48;100.00
53514;BME280;39768;54.148;12.174;2023-03-01T05:34:14;102864.75;;;1.50;100.00
53514;BME280;39768;54.148;12.174;2023-03-01T05:38:16;102871.25;;;1.57;98.70
53514;BME280;39768;54.148;12.174;2023-03-01T05:42:17;102863.31;;;1.55;97.99
53514;BME280;39768;54.148;12.174;2023-03-01T05:46:19;102863.53;;;1.44;99.22
53514;BME280;39768;54.148;12.174;2023-03-01T05:50:23;102868.13;;;1.78;99.52
53514;BME280;39768;54.148;12.174;2023-03-01T05:54:26;102865.59;;;1.80;97.96
53514;BME280;39768;54.148;12.174;2023-03-01T05:58:27;102870.81;;;2.11;97.51
53514;BME280;39768;54.148;12.174;2023-03-01T06:02:29;102865.81;;;2.16;96.73
53514;BME280;39768;54.148;12.174;2023-03-01T06:06:34;102868.53;;;2.17;96.55
53514;BME280;39768;54.148;12.174;2023-03-01T06:10:38;102865.25;;;2.21;99.13
53514;BME280;39768;54.148;12.174;2023-03-01T06:14:40;102868.13;;;2.26;98.36
53514;BME280;39768;54.148;12.174;2023-03-01T06:18:41;102867.56;;;2.47;97.68
53514;BME280;39768;54.148;12.174;2023-03-01T06:22:44;102858.59;;;2.76;97.90
53514;BME280;39768;54.148;12.174;2023-03-01T06:26:45;102848.34;;;2.81;97.29
53514;BME280;39768;54.148;12.174;2023-03-01T06:30:47;102848.16;;;2.94;97.55
53514;BME280;39768;54.148;12.174;2023-03-01T06:34:49;102850.66;;;3.09;97.34
53514;BME280;39768;54.148;12.174;2023-03-01T06:38:51;102852.75;;;3.34;96.19
53514;BME280;39768;54.148;12.174;2023-03-01T06:42:52;102856.72;;;3.43;96.29
53514;BME280;39768;54.148;12.174;2023-03-01T06:46:54;102864.81;;;3.30;97.99
53514;BME280;39768;54.148;12.174;2023-03-01T06:50:58;102877.75;;;3.26;100.00
53514;BME280;39768;54.148;12.174;2023-03-01T06:54:59;102881.19;;;3.78;98.85
53514;BME280;39768;54.148;12.174;2023-03-01T06:59:01;102884.88;;;3.64;100.00
53514;BME280;39768;54.148;12.174;2023-03-01T07:03:03;102877.72;;;3.97;99.37
53514;BME280;39768;54.148;12.174;2023-03-01T07:07:05;102881.72;;;3.71;100.00
53514;BME280;39768;54.148;12.174;2023-03-01T07:11:06;102889.38;;;4.21;100.00
53514;BME280;39768;54.148;12.174;2023-03-01T07:15:10;102880.00;;;4.08;100.00
53514;BME280;39768;54.148;12.174;2023-03-01T07:19:11;102878.38;;;4.30;100.00
53514;BME280;39768;54.148;12.174;2023-03-01T07:23:13;102875.88;;;4.33;100.00
53514;BME280;39768;54.148;12.174;2023-03-01T07:27:14;102872.56;;;4.37;100.00
53514;BME280;39768;54.148;12.174;2023-03-01T07:31:16;102879.63;;;4.01;100.00
53514;BME280;39768;54.148;12.174;2023-03-01T07:35:17;102888.91;;;4.30;100.00
53514;BME280;39768;54.148;12.174;2023-03-01T07:39:19;102884.94;;;4.20;100.00
53514;BME280;39768;54.148;12.174;2023-03-01T07:43:20;102898.66;;;4.51;100.00
53514;BME280;39768;54.148;12.174;2023-03-01T07:47:22;102895.72;;;4.45;100.00
53514;BME280;39768;54.148;12.174;2023-03-01T07:51:23;102895.88;;;4.87;100.00
53514;BME280;39768;54.148;12.174;2023-03-01T07:55:25;102890.63;;;4.87;100.00
53514;BME280;39768;54.148;12.174;2023-03-01T07:59:26;102890.25;;;4.79;100.00
53514;BME280;39768;54.148;12.174;2023-03-01T08:03:30;102895.94;;;4.88;100.00
53514;BME280;39768;54.148;12.174;2023-03-01T08:07:32;102888.47;;;5.18;100.00
53514;BME280;39768;54.148;12.174;2023-03-01T08:11:34;102888.47;;;5.82;100.00
53514;BME280;39768;54.148;12.174;2023-03-01T08:15:35;102893.31;;;5.72;100.00
53514;BME280;39768;54.148;12.174;2023-03-01T08:19:37;102882.59;;;6.10;100.00
53514;BME280;39768;54.148;12.174;2023-03-01T08:23:39;102885.44;;;6.38;100.00
53514;BME280;39768;54.148;12.174;2023-03-01T08:27:41;102880.72;;;6.30;100.00
53514;BME280;39768;54.148;12.174;2023-03-01T08:31:42;102875.44;;;6.54;100.00
53514;BME280;39768;54.148;12.174;2023-03-01T08:35:44;102874.91;;;6.16;100.00
53514;BME280;39768;54.148;12.174;2023-03-01T08:39:46;102867.38;;;6.49;100.00
53514;BME280;39768;54.148;12.174;2023-03-01T08:43:48;102874.34;;;6.25;100.00
53514;BME280;39768;54.148;12.174;2023-03-01T08:47:52;102876.78;;;6.19;100.00
53514;BME280;39768;54.148;12.174;2023-03-01T08:51:53;102876.97;;;6.01;100.00
53514;BME280;39768;54.148;12.174;2023-03-01T08:55:59;102886.47;;;5.97;100.00
53514;BME280;39768;54.148;12.174;2023-03-01T09:00:01;102897.03;;;6.20;100.00
53514;BME280;39768;54.148;12.174;2023-03-01T09:04:04;102900.97;;;6.09;100.00
53514;BME280;39768;54.148;12.174;2023-03-01T09:08:05;102908.44;;;6.43;100.00
53514;BME280;39768;54.148;12.174;2023-03-01T09:12:10;102913.25;;;6.53;100.00
53514;BME280;39768;54.148;12.174;2023-03-01T09:16:14;102905.34;;;6.53;100.00
53514;BME280;39768;54.148;12.174;2023-03-01T09:20:16;102912.34;;;6.52;100.00
53514;BME280;39768;54.148;12.174;2023-03-01T09:24:19;102899.25;;;6.31;100.00
53514;BME280;39768;54.148;12.174;2023-03-01T09:28:21;102905.28;;;6.51;100.00
53514;BME280;39768;54.148;12.174;2023-03-01T09:32:31;102890.72;;;6.86;100.00
53514;BME280;39768;54.148;12.174;2023-03-01T09:36:33;102883.56;;;6.82;100.00
53514;BME280;39768;54.148;12.174;2023-03-01T09:40:35;102885.78;;;7.21;100.00
53514;BME280;39768;54.148;12.174;2023-03-01T09:44:58;102882.25;;;6.95;100.00
53514;BME280;39768;54.148;12.174;2023-03-01T09:49:15;102882.88;;;7.38;100.00
53514;BME280;39768;54.148;12.174;2023-03-01T09:53:24;102886.34;;;7.37;100.00
53514;BME280;39768;54.148;12.174;2023-03-01T09:57:43;102884.28;;;7.29;100.00
53514;BME280;39768;54.148;12.174;2023-03-01T10:02:10;102895.81;;;7.58;100.00
53514;BME280;39768;54.148;12.174;2023-03-01T10:06:21;102904.28;;;7.21;100.00
53514;BME280;39768;54.148;12.174;2023-03-01T10:10:38;102895.53;;;7.49;100.00
53514;BME280;39768;54.148;12.174;2023-03-01T10:14:54;102897.63;;;7.59;100.00
53514;BME280;39768;54.148;12.174;2023-03-01T10:19:01;102892.34;;;7.59;100.00
53514;BME280;39768;54.148;12.174;2023-03-01T10:23:04;102895.38;;;7.19;100.00
53514;BME280;39768;54.148;12.174;2023-03-01T10:27:19;102891.53;;;7.88;100.00
53514;BME280;39768;54.148;12.174;2023-03-01T10:31:25;102879.06;;;7.84;100.00
53514;BME280;39768;54.148;12.174;2023-03-01T10:35:33;102875.63;;;8.15;100.00
53514;BME280;39768;54.148;12.174;2023-03-01T10:39:35;102867.00;;;8.22;100.00
53514;BME280;39768;54.148;12.174;2023-03-01T10:43:46;102872.19;;;8.19;100.00
53514;BME280;39768;54.148;12.174;2023-03-01T10:48:03;102874.81;;;8.18;100.00
53514;BME280;39768;54.148;12.174;2023-03-01T10:52:18;102882.00;;;8.22;100.00
53514;BME280;39768;54.148;12.174;2023-03-01T10:56:20;102880.94;;;8.15;100.00
53514;BME280;39768;54.148;12.174;2023-03-01T11:00:25;102879.78;;;8.07;100.00
53514;BME280;39768;54.148;12.174;2023-03-01T11:04:27;102878.06;;;7.81;100.00
53514;BME280;39768;54.148;12.174;2023-03-01T11:08:44;102885.69;;;7.44;100.00
53514;BME280;39768;54.148;12.174;2023-03-01T11:12:46;102878.72;;;7.47;100.00
53514;BME280;39768;54.148;12.174;2023-03-01T11:17:02;102876.75;;;7.66;100.00
53514;BME280;39768;54.148;12.174;2023-03-01T11:21:05;102869.09;;;7.49;100.00
53514;BME280;39768;54.148;12.174;2023-03-01T11:25:13;102870.00;;;7.76;100.00
53514;BME280;39768;54.148;12.174;2023-03-01T11:29:25;102866.66;;;7.55;100.00
53514;BME280;39768;54.148;12.174;2023-03-01T11:33:41;102873.94;;;7.62;100.00
53514;BME280;39768;54.148;12.174;2023-03-01T11:42:04;102868.84;;;8.25;100.00
53514;BME280;39768;54.148;12.174;2023-03-01T11:50:44;102872.94;;;8.42;100.00
53514;BME280;39768;54.148;12.174;2023-03-01T11:55:02;102867.75;;;8.45;100.00
53514;BME280;39768;54.148;12.174;2023-03-01T11:59:31;102865.56;;;8.32;100.00
53514;BME280;39768;54.148;12.174;2023-03-01T12:03:47;102865.41;;;8.27;100.00
53514;BME280;39768;54.148;12.174;2023-03-01T12:08:01;102864.66;;;8.03;100.00
53514;BME280;39768;54.148;12.174;2023-03-01T12:16:27;102855.97;;;8.07;100.00
53514;BME280;39768;54.148;12.174;2023-03-01T12:20:58;102846.09;;;8.01;100.00
53514;BME280;39768;54.148;12.174;2023-03-01T12:25:16;102846.09;;;7.73;100.00
53514;BME280;39768;54.148;12.174;2023-03-01T12:34:03;102839.41;;;7.84;100.00
53514;BME280;39768;54.148;12.174;2023-03-01T12:38:22;102832.66;;;7.94;100.00
53514;BME280;39768;54.148;12.174;2023-03-01T12:42:35;102837.81;;;7.62;100.00
53514;BME280;39768;54.148;12.174;2023-03-01T12:50:57;102826.13;;;8.11;100.00
53514;BME280;39768;54.148;12.174;2023-03-01T12:55:02;102818.19;;;8.11;100.00
53514;BME280;39768;54.148;12.174;2023-03-01T12:59:29;102824.03;;;7.71;100.00
53514;BME280;39768;54.148;12.174;2023-03-01T13:03:53;102824.19;;;7.77;100.00
53514;BME280;39768;54.148;12.174;2023-03-01T13:08:07;102823.72;;;7.35;100.00
53514;BME280;39768;54.148;12.174;2023-03-01T13:16:47;102821.13;;;7.10;100.00
53514;BME280;39768;54.148;12.174;2023-03-01T13:20:52;102812.63;;;6.93;100.00
53514;BME280;39768;54.148;12.174;2023-03-01T13:25:10;102813.63;;;6.96;100.00
53514;BME280;39768;54.148;12.174;2023-03-01T13:29:26;102815.09;;;6.88;100.00
53514;BME280;39768;54.148;12.174;2023-03-01T13:37:35;102815.06;;;7.12;100.00
53514;BME280;39768;54.148;12.174;2023-03-01T13:45:45;102814.00;;;7.34;100.00
53514;BME280;39768;54.148;12.174;2023-03-01T13:49:57;102817.66;;;7.37;100.00
53514;BME280;39768;54.148;12.174;2023-03-01T13:54:00;102802.88;;;7.17;100.00
53514;BME280;39768;54.148;12.174;2023-03-01T13:58:05;102804.94;;;7.00;100.00
53514;BME280;39768;54.148;12.174;2023-03-01T14:02:16;102798.16;;;6.82;100.00
53514;BME280;39768;54.148;12.174;2023-03-01T14:06:23;102792.91;;;7.08;100.00
53514;BME280;39768;54.148;12.174;2023-03-01T14:10:31;102783.72;;;7.51;100.00
53514;BME280;39768;54.148;12.174;2023-03-01T14:19:08;102781.88;;;7.49;100.00
53514;BME280;39768;54.148;12.174;2023-03-01T14:23:21;102781.75;;;7.17;100.00
53514;BME280;39768;54.148;12.174;2023-03-01T14:27:35;102784.25;;;7.39;100.00
53514;BME280;39768;54.148;12.174;2023-03-01T14:31:40;102780.28;;;7.25;100.00
53514;BME280;39768;54.148;12.174;2023-03-01T14:36:11;102777.41;;;7.19;100.00
53514;BME280;39768;54.148;12.174;2023-03-01T14:40:27;102781.34;;;7.32;100.00
53514;BME280;39768;54.148;12.174;2023-03-01T14:44:29;102758.94;;;7.19;100.00
53514;BME280;39768;54.148;12.174;2023-03-01T14:48:31;102775.88;;;6.73;100.00
53514;BME280;39768;54.148;12.174;2023-03-01T14:52:42;102776.72;;;6.47;100.00
53514;BME280;39768;54.148;12.174;2023-03-01T14:56:47;102768.44;;;6.62;100.00
53514;BME280;39768;54.148;12.174;2023-03-01T15:00:53;102770.97;;;6.59;100.00
53514;BME280;39768;54.148;12.174;2023-03-01T15:04:57;102778.91;;;6.35;100.00
53514;BME280;39768;54.148;12.174;2023-03-01T15:09:02;102771.16;;;5.92;100.00
53514;BME280;39768;54.148;12.174;2023-03-01T15:13:12;102759.16;;;6.00;100.00
53514;BME280;39768;54.148;12.174;2023-03-01T15:17:32;102771.97;;;5.68;100.00
53514;BME280;39768;54.148;12.174;2023-03-01T15:21:37;102765.44;;;5.81;100.00
53514;BME280;39768;54.148;12.174;2023-03-01T15:25:44;102764.72;;;5.85;100.00
53514;BME280;39768;54.148;12.174;2023-03-01T15:29:53;102762.25;;;5.88;100.00
53514;BME280;39768;54.148;12.174;2023-03-01T15:34:09;102761.22;;;5.62;100.00
53514;BME280;39768;54.148;12.174;2023-03-01T15:38:55;102746.72;;;5.74;100.00
53514;BME280;39768;54.148;12.174;2023-03-01T15:43:01;102745.22;;;5.58;100.00
53514;BME280;39768;54.148;12.174;2023-03-01T15:47:24;102738.84;;;5.97;100.00
53514;BME280;39768;54.148;12.174;2023-03-01T15:51:33;102743.38;;;5.79;100.00
53514;BME280;39768;54.148;12.174;2023-03-01T15:55:34;102745.31;;;5.83;100.00
53514;BME280;39768;54.148;12.174;2023-03-01T15:59:37;102736.22;;;6.21;100.00
53514;BME280;39768;54.148;12.174;2023-03-01T16:03:38;102735.41;;;6.24;100.00
53514;BME280;39768;54.148;12.174;2023-03-01T16:07:40;102739.00;;;5.80;100.00
53514;BME280;39768;54.148;12.174;2023-03-01T16:11:41;102729.22;;;6.22;100.00
53514;BME280;39768;54.148;12.174;2023-03-01T16:15:44;102736.84;;;5.90;100.00
53514;BME280;39768;54.148;12.174;2023-03-01T16:19:45;102736.22;;;5.75;100.00
53514;BME280;39768;54.148;12.174;2023-03-01T16:23:47;102736.97;;;5.93;100.00
53514;BME280;39768;54.148;12.174;2023-03-01T16:27:50;102724.66;;;5.94;100.00
53514;BME280;39768;54.148;12.174;2023-03-01T16:31:52;102730.22;;;5.79;100.00
53514;BME280;39768;54.148;12.174;2023-03-01T16:35:54;102733.50;;;5.96;100.00
53514;BME280;39768;54.148;12.174;2023-03-01T16:39:55;102726.28;;;5.90;100.00
53514;BME280;39768;54.148;12.174;2023-03-01T16:43:57;102724.56;;;6.40;100.00
53514;BME280;39768;54.148;12.174;2023-03-01T16:47:58;102725.47;;;5.91;100.00
53514;BME280;39768;54.148;12.174;2023-03-01T16:52:00;102725.81;;;5.56;100.00
53514;BME280;39768;54.148;12.174;2023-03-01T16:56:03;102724.72;;;5.73;100.00
53514;BME280;39768;54.148;12.174;2023-03-01T17:00:07;102716.88;;;5.75;100.00
53514;BME280;39768;54.148;12.174;2023-03-01T17:04:11;102708.72;;;5.68;100.00
53514;BME280;39768;54.148;12.174;2023-03-01T17:08:14;102713.13;;;5.90;100.00
53514;BME280;39768;54.148;12.174;2023-03-01T17:12:15;102709.38;;;5.85;100.00
53514;BME280;39768;54.148;12.174;2023-03-01T17:16:18;102723.53;;;5.65;100.00
53514;BME280;39768;54.148;12.174;2023-03-01T17:20:20;102736.06;;;5.26;100.00
53514;BME280;39768;54.148;12.174;2023-03-01T17:24:22;102737.28;;;5.34;100.00
53514;BME280;39768;54.148;12.174;2023-03-01T17:28:26;102739.28;;;5.19;100.00
53514;BME280;39768;54.148;12.174;2023-03-01T17:32:28;102749.03;;;5.21;100.00
53514;BME280;39768;54.148;12.174;2023-03-01T17:36:30;102755.41;;;5.06;100.00
53514;BME280;39768;54.148;12.174;2023-03-01T17:40:33;102758.94;;;5.06;100.00
53514;BME280;39768;54.148;12.174;2023-03-01T17:44:36;102743.13;;;5.06;100.00
53514;BME280;39768;54.148;12.174;2023-03-01T17:48:38;102737.44;;;5.16;100.00
53514;BME280;39768;54.148;12.174;2023-03-01T17:52:40;102739.34;;;5.43;100.00
53514;BME280;39768;54.148;12.174;2023-03-01T17:56:41;102734.81;;;5.61;100.00
53514;BME280;39768;54.148;12.174;2023-03-01T18:00:43;102745.13;;;5.32;100.00
53514;BME280;39768;54.148;12.174;2023-03-01T18:04:45;102749.28;;;5.27;100.00
53514;BME280;39768;54.148;12.174;2023-03-01T18:08:53;102747.91;;;5.37;100.00
53514;BME280;39768;54.148;12.174;2023-03-01T18:12:55;102745.75;;;5.27;100.00
53514;BME280;39768;54.148;12.174;2023-03-01T18:16:57;102762.38;;;5.04;100.00
53514;BME280;39768;54.148;12.174;2023-03-01T18:21:00;102771.81;;;5.21;100.00
53514;BME280;39768;54.148;12.174;2023-03-01T18:25:02;102773.47;;;5.17;100.00
53514;BME280;39768;54.148;12.174;2023-03-01T18:29:03;102778.59;;;5.37;100.00
53514;BME280;39768;54.148;12.174;2023-03-01T18:33:05;102775.75;;;5.53;100.00
53514;BME280;39768;54.148;12.174;2023-03-01T18:37:06;102774.25;;;5.59;100.00
53514;BME280;39768;54.148;12.174;2023-03-01T18:41:10;102784.75;;;5.58;100.00
53514;BME280;39768;54.148;12.174;2023-03-01T18:45:12;102775.63;;;5.50;100.00
53514;BME280;39768;54.148;12.174;2023-03-01T18:49:15;102767.84;;;5.30;100.00
53514;BME280;39768;54.148;12.174;2023-03-01T18:53:16;102769.25;;;5.22;100.00
53514;BME280;39768;54.148;12.174;2023-03-01T18:57:18;102769.53;;;5.08;100.00
53514;BME280;39768;54.148;12.174;2023-03-01T19:01:21;102757.78;;;5.43;100.00
53514;BME280;39768;54.148;12.174;2023-03-01T19:05:24;102770.69;;;5.14;100.00
53514;BME280;39768;54.148;12.174;2023-03-01T19:09:28;102766.28;;;5.80;100.00
53514;BME280;39768;54.148;12.174;2023-03-01T19:13:30;102765.75;;;5.66;100.00
53514;BME280;39768;54.148;12.174;2023-03-01T19:17:32;102769.06;;;5.61;100.00
53514;BME280;39768;54.148;12.174;2023-03-01T19:21:35;102770.91;;;5.41;100.00
53514;BME280;39768;54.148;12.174;2023-03-01T19:25:36;102777.66;;;5.35;100.00
53514;BME280;39768;54.148;12.174;2023-03-01T19:29:38;102775.69;;;5.29;100.00
53514;BME280;39768;54.148;12.174;2023-03-01T19:33:39;102776.22;;;5.65;100.00
53514;BME280;39768;54.148;12.174;2023-03-01T19:37:41;102780.84;;;5.71;100.00
53514;BME280;39768;54.148;12.174;2023-03-01T19:41:43;102787.72;;;5.45;100.00
53514;BME280;39768;54.148;12.174;2023-03-01T19:45:50;102792.22;;;5.47;100.00
53514;BME280;39768;54.148;12.174;2023-03-01T19:49:51;102784.97;;;5.86;100.00
53514;BME280;39768;54.148;12.174;2023-03-01T19:53:53;102781.94;;;5.98;100.00
53514;BME280;39768;54.148;12.174;2023-03-01T19:57:56;102779.22;;;5.74;100.00
53514;BME280;39768;54.148;12.174;2023-03-01T20:01:57;102773.97;;;5.96;100.00
53514;BME280;39768;54.148;12.174;2023-03-01T20:05:59;102774.25;;;5.82;100.00
53514;BME280;39768;54.148;12.174;2023-03-01T20:10:03;102781.03;;;5.53;100.00
53514;BME280;39768;54.148;12.174;2023-03-01T20:14:05;102774.91;;;5.31;100.00
53514;BME280;39768;54.148;12.174;2023-03-01T20:18:09;102774.97;;;5.33;100.00
53514;BME280;39768;54.148;12.174;2023-03-01T20:22:11;102768.50;;;5.25;100.00
53514;BME280;39768;54.148;12.174;2023-03-01T20:26:15;102780.53;;;5.18;100.00
53514;BME280;39768;54.148;12.174;2023-03-01T20:30:19;102776.69;;;4.89;100.00
53514;BME280;39768;54.148;12.174;2023-03-01T20:34:21;102776.22;;;4.79;100.00
53514;BME280;39768;54.148;12.174;2023-03-01T20:38:22;102776.97;;;4.55;100.00
53514;BME280;39768;54.148;12.174;2023-03-01T20:42:24;102791.81;;;4.95;100.00
53514;BME280;39768;54.148;12.174;2023-03-01T20:46:25;102782.63;;;5.27;100.00
53514;BME280;39768;54.148;12.174;2023-03-01T20:50:27;102796.00;;;5.54;100.00
53514;BME280;39768;54.148;12.174;2023-03-01T20:54:29;102800.50;;;5.13;100.00
53514;BME280;39768;54.148;12.174;2023-03-01T20:58:30;102793.69;;;4.97;100.00
53514;BME280;39768;54.148;12.174;2023-03-01T21:02:33;102793.13;;;4.84;100.00
53514;BME280;39768;54.148;12.174;2023-03-01T21:06:35;102790.31;;;5.22;100.00
53514;BME280;39768;54.148;12.174;2023-03-01T21:10:38;102785.97;;;5.23;100.00
53514;BME280;39768;54.148;12.174;2023-03-01T21:14:39;102772.28;;;5.54;100.00
53514;BME280;39768;54.148;12.174;2023-03-01T21:18:44;102763.28;;;5.71;100.00
53514;BME280;39768;54.148;12.174;2023-03-01T21:22:45;102757.59;;;5.83;100.00
53514;BME280;39768;54.148;12.174;2023-03-01T21:26:47;102750.47;;;5.80;100.00
53514;BME280;39768;54.148;12.174;2023-03-01T21:30:48;102749.03;;;5.66;100.00
53514;BME280;39768;54.148;12.174;2023-03-01T21:34:50;102754.69;;;5.53;100.00
53514;BME280;39768;54.148;12.174;2023-03-01T21:38:52;102748.78;;;5.82;100.00
53514;BME280;39768;54.148;12.174;2023-03-01T21:42:54;102746.66;;;6.18;100.00
53514;BME280;39768;54.148;12.174;2023-03-01T21:46:56;102745.22;;;6.28;100.00